createdAt,value
2019-06-01T00:00:20.567Z,99.90
2019-06-01T00:02:56.113Z,99.90
2019-06-01T00:05:21.476Z,99.90
2019-06-01T00:07:51.025Z,99.90
2019-06-01T00:10:21.149Z,99.90
2019-06-01T00:12:50.823Z,99.90
2019-06-01T00:15:20.410Z,99.90
2019-06-01T00:17:50.068Z,99.90
2019-06-01T00:20:19.980Z,99.90
2019-06-01T00:22:49.536Z,99.90
2019-06-01T00:25:18.992Z,99.90
2019-06-01T00:27:48.783Z,99.90
2019-06-01T00:30:26.935Z,99.90
2019-06-01T00:32:52.650Z,99.90
2019-06-01T00:35:22.179Z,99.90
2019-06-01T00:37:51.864Z,99.90
2019-06-01T00:40:21.537Z,99.90
2019-06-01T00:42:52.343Z,99.90
2019-06-01T00:45:22.039Z,99.90
2019-06-01T00:47:53.265Z,99.90
2019-06-01T00:50:22.850Z,99.90
2019-06-01T00:52:53.423Z,99.90
2019-06-01T00:55:23.172Z,99.90
2019-06-01T00:57:53.959Z,99.90
2019-06-01T01:00:42.534Z,99.90
2019-06-01T01:02:58.058Z,99.90
2019-06-01T01:05:28.245Z,99.90
2019-06-01T01:07:57.812Z,99.90
2019-06-01T01:10:27.485Z,99.90
2019-06-01T01:12:58.664Z,99.90
2019-06-01T01:15:28.097Z,99.90
2019-06-01T01:17:57.750Z,99.90
2019-06-01T01:20:27.386Z,99.90
2019-06-01T01:22:57.024Z,99.90
2019-06-01T01:25:26.638Z,99.90
2019-06-01T01:27:57.717Z,99.90
2019-06-01T01:30:27.794Z,99.90
2019-06-01T01:32:59.114Z,99.90
2019-06-01T01:35:34.483Z,99.90
2019-06-01T01:38:04.365Z,99.90
2019-06-01T01:40:33.919Z,99.90
2019-06-01T01:43:03.530Z,99.90
2019-06-01T01:45:33.293Z,99.90
2019-06-01T01:48:02.944Z,99.90
2019-06-01T01:50:32.515Z,99.90
2019-06-01T01:53:03.338Z,99.90
2019-06-01T01:55:33.059Z,99.90
2019-06-01T01:58:02.624Z,99.90
2019-06-01T02:00:36.920Z,99.90
2019-06-01T02:03:07.866Z,99.90
2019-06-01T02:05:37.770Z,99.90
2019-06-01T02:08:09.114Z,99.90
2019-06-01T02:10:44.495Z,99.90
2019-06-01T02:13:15.870Z,99.90
2019-06-01T02:15:45.447Z,99.90
2019-06-01T02:18:15.014Z,99.90
2019-06-01T02:20:50.528Z,99.90
2019-06-01T02:23:20.080Z,99.90
2019-06-01T02:25:49.669Z,99.90
2019-06-01T02:28:19.283Z,99.90
2019-06-01T02:30:48.857Z,99.90
2019-06-01T02:33:18.521Z,99.90
2019-06-01T02:35:48.102Z,99.90
2019-06-01T02:38:19.283Z,99.90
2019-06-01T02:40:50.529Z,99.90
2019-06-01T02:43:20.290Z,99.90
2019-06-01T02:45:50.050Z,99.90
2019-06-01T02:48:19.679Z,99.90
2019-06-01T02:50:49.205Z,99.90
2019-06-01T02:53:18.701Z,99.90
2019-06-01T02:55:48.164Z,99.90
2019-06-01T02:58:17.719Z,99.90
2019-06-01T03:03:23.948Z,99.90
2019-06-01T03:05:55.244Z,99.90
2019-06-01T03:08:32.871Z,99.90
2019-06-01T03:11:05.997Z,99.90
2019-06-01T03:13:39.991Z,99.90
2019-06-01T03:16:12.954Z,99.90
2019-06-01T03:18:46.219Z,99.90
2019-06-01T03:21:22.104Z,99.90
2019-06-01T03:23:56.597Z,99.90
2019-06-01T03:26:30.616Z,99.90
2019-06-01T03:29:03.644Z,99.90
2019-06-01T03:31:34.734Z,99.90
2019-06-01T03:34:06.948Z,99.90
2019-06-01T03:36:37.427Z,99.90
2019-06-01T03:39:08.489Z,99.90
2019-06-01T03:41:38.812Z,99.90
2019-06-01T03:44:08.561Z,99.90
2019-06-01T03:46:39.672Z,99.90
2019-06-01T03:49:09.820Z,99.90
2019-06-01T03:51:40.962Z,99.90
2019-06-01T03:54:13.170Z,99.90
2019-06-01T03:56:42.786Z,99.90
2019-06-01T03:59:12.289Z,99.90
2019-06-01T04:02:01.064Z,99.90
2019-06-01T04:04:30.756Z,99.90
2019-06-01T04:07:01.257Z,99.90
2019-06-01T04:09:30.889Z,99.90
2019-06-01T04:12:01.451Z,99.90
2019-06-01T04:14:30.965Z,99.90
2019-06-01T04:17:01.892Z,99.90
2019-06-01T04:19:31.503Z,99.90
2019-06-01T04:22:20.324Z,99.90
2019-06-01T04:24:49.832Z,99.90
2019-06-01T04:27:19.335Z,99.90
2019-06-01T04:29:48.947Z,99.90
2019-06-01T04:32:18.506Z,99.90
2019-06-01T04:34:47.845Z,99.90
2019-06-01T04:37:17.355Z,99.90
2019-06-01T04:39:46.876Z,99.90
2019-06-01T04:42:16.344Z,99.90
2019-06-01T04:44:45.873Z,99.90
2019-06-01T04:47:15.358Z,99.90
2019-06-01T04:49:44.893Z,99.90
2019-06-01T04:52:15.262Z,99.90
2019-06-01T04:54:44.771Z,99.90
2019-06-01T04:57:15.115Z,99.90
2019-06-01T04:59:44.856Z,99.90
2019-06-01T05:02:15.222Z,99.90
2019-06-01T05:04:46.350Z,99.90
2019-06-01T05:07:18.716Z,99.90
2019-06-01T05:09:48.280Z,99.90
2019-06-01T05:12:17.702Z,99.90
2019-06-01T05:14:47.250Z,99.90
2019-06-01T05:17:16.965Z,99.90
2019-06-01T05:19:46.418Z,99.90
2019-06-01T05:22:16.726Z,99.90
2019-06-01T05:24:46.465Z,99.90
2019-06-01T05:27:17.224Z,99.90
2019-06-01T05:29:46.824Z,99.90
2019-06-01T05:32:16.742Z,99.90
2019-06-01T05:34:47.667Z,99.90
2019-06-01T05:37:18.621Z,99.90
2019-06-01T05:39:48.295Z,99.90
2019-06-01T05:42:18.991Z,99.90
2019-06-01T05:44:48.667Z,99.90
2019-06-01T05:47:18.430Z,99.90
2019-06-01T05:49:48.342Z,99.90
2019-06-01T05:52:18.810Z,99.90
2019-06-01T05:54:48.445Z,99.90
2019-06-01T05:57:19.329Z,99.90
2019-06-01T05:59:49.148Z,99.90
2019-06-01T06:02:19.571Z,99.90
2019-06-01T06:05:09.087Z,99.90
2019-06-01T06:07:39.002Z,99.90
2019-06-01T06:10:09.574Z,99.90
2019-06-01T06:12:39.068Z,99.90
2019-06-01T06:15:09.527Z,99.90
2019-06-01T06:17:39.010Z,99.90
2019-06-01T06:20:09.746Z,99.90
2019-06-01T06:22:41.202Z,99.90
2019-06-01T06:25:10.857Z,99.90
2019-06-01T06:27:40.294Z,99.90
2019-06-01T06:30:10.429Z,99.90
2019-06-01T06:32:39.889Z,99.90
2019-06-01T06:35:09.810Z,99.90
2019-06-01T06:37:42.252Z,99.90
2019-06-01T06:40:13.789Z,99.90
2019-06-01T06:42:43.354Z,99.90
2019-06-01T06:45:14.600Z,99.90
2019-06-01T06:47:44.076Z,99.90
2019-06-01T06:50:17.582Z,99.90
2019-06-01T06:52:47.365Z,99.90
2019-06-01T06:55:23.973Z,99.90
2019-06-01T06:57:53.621Z,99.90
2019-06-01T07:00:24.788Z,99.90
2019-06-01T07:03:00.510Z,99.90
2019-06-01T07:05:31.501Z,99.90
2019-06-01T07:08:01.159Z,99.90
2019-06-01T07:10:30.924Z,99.90
2019-06-01T07:13:09.197Z,99.90
2019-06-01T07:15:38.747Z,99.90
2019-06-01T07:18:08.198Z,99.90
2019-06-01T07:20:37.704Z,99.90
2019-06-01T07:23:07.232Z,99.90
2019-06-01T07:25:36.772Z,99.90
2019-06-01T07:28:06.808Z,99.90
2019-06-01T07:30:49.873Z,99.90
2019-06-01T07:33:07.657Z,99.90
2019-06-01T07:35:37.187Z,99.90
2019-06-01T07:38:06.713Z,99.90
2019-06-01T07:40:36.218Z,99.90
2019-06-01T07:43:05.775Z,99.90
2019-06-01T07:45:35.485Z,99.90
2019-06-01T07:48:05.006Z,99.90
2019-06-01T07:50:34.553Z,90.70
2019-06-01T07:53:17.078Z,67.00
2019-06-01T07:55:46.563Z,56.60
2019-06-01T07:58:16.085Z,55.30
2019-06-01T08:00:45.591Z,54.90
2019-06-01T08:03:19.383Z,52.90
2019-06-01T08:05:48.961Z,51.90
2019-06-01T08:08:18.821Z,49.50
2019-06-01T08:10:48.438Z,49.60
2019-06-01T08:13:21.438Z,55.10
2019-06-01T08:15:51.055Z,51.10
2019-06-01T08:18:21.893Z,48.90
2019-06-01T08:20:51.444Z,48.20
2019-06-01T08:23:21.883Z,46.00
2019-06-01T08:25:51.553Z,52.20
2019-06-01T08:28:22.302Z,53.00
2019-06-01T08:30:51.948Z,47.30
2019-06-01T08:33:26.494Z,45.50
2019-06-01T08:35:54.114Z,45.50
2019-06-01T08:38:23.623Z,42.70
2019-06-01T08:40:53.111Z,40.80
2019-06-01T08:43:23.551Z,37.70
2019-06-01T08:45:53.168Z,36.70
2019-06-01T08:48:23.687Z,44.40
2019-06-01T08:50:53.308Z,47.10
2019-06-01T08:53:23.811Z,44.70
2019-06-01T08:55:53.422Z,41.20
2019-06-01T08:58:24.152Z,38.50
2019-06-01T09:00:53.803Z,35.50
2019-06-01T09:03:23.274Z,36.60
2019-06-01T09:05:52.788Z,37.90
2019-06-01T09:08:23.931Z,39.00
2019-06-01T09:10:53.523Z,41.50
2019-06-01T09:13:23.086Z,40.10
2019-06-01T09:15:52.611Z,38.60
2019-06-01T09:18:22.102Z,38.60
2019-06-01T09:20:51.566Z,36.60
2019-06-01T09:23:21.234Z,39.60
2019-06-01T09:25:50.710Z,38.10
2019-06-01T09:28:20.293Z,39.70
2019-06-01T09:30:52.766Z,39.40
2019-06-01T09:33:22.223Z,41.30
2019-06-01T09:35:55.943Z,41.90
2019-06-01T09:38:24.046Z,40.60
2019-06-01T09:40:53.556Z,37.80
2019-06-01T09:43:23.005Z,36.20
2019-06-01T09:45:53.447Z,34.10
2019-06-01T09:48:23.214Z,36.80
2019-06-01T09:50:52.677Z,38.20
2019-06-01T09:53:25.845Z,36.60
2019-06-01T09:55:55.305Z,37.40
2019-06-01T09:58:24.806Z,38.10
2019-06-01T10:00:54.357Z,38.90
2019-06-01T10:03:23.847Z,39.00
2019-06-01T10:06:01.767Z,40.30
2019-06-01T10:08:24.530Z,40.70
2019-06-01T10:10:54.003Z,41.30
2019-06-01T10:13:23.485Z,41.90
2019-06-01T10:15:53.124Z,45.60
2019-06-01T10:18:26.712Z,44.30
2019-06-01T10:20:53.822Z,42.80
2019-06-01T10:23:23.309Z,40.60
2019-06-01T10:25:52.785Z,40.10
2019-06-01T10:28:22.314Z,42.90
2019-06-01T10:30:51.796Z,43.40
2019-06-01T10:33:21.276Z,42.70
2019-06-01T10:35:50.800Z,44.60
2019-06-01T10:38:20.511Z,44.30
2019-06-01T10:40:50.176Z,44.10
2019-06-01T10:43:19.659Z,38.30
2019-06-01T10:45:49.469Z,37.90
2019-06-01T10:48:18.947Z,35.50
2019-06-01T10:50:48.449Z,34.60
2019-06-01T10:53:17.977Z,34.00
2019-06-01T10:55:47.585Z,34.00
2019-06-01T10:58:17.067Z,33.50
2019-06-01T11:00:50.867Z,36.10
2019-06-01T11:03:17.799Z,33.70
2019-06-01T11:05:47.464Z,32.90
2019-06-01T11:08:16.949Z,33.50
2019-06-01T11:10:46.459Z,35.50
2019-06-01T11:13:15.963Z,36.40
2019-06-01T11:15:45.509Z,37.10
2019-06-01T11:18:14.988Z,40.00
2019-06-01T11:20:44.564Z,41.40
2019-06-01T11:23:14.070Z,39.00
2019-06-01T11:25:43.765Z,36.50
2019-06-01T11:28:13.419Z,34.20
2019-06-01T11:30:43.979Z,34.80
2019-06-01T11:33:15.226Z,35.50
2019-06-01T11:35:45.459Z,36.20
2019-06-01T11:38:15.111Z,35.20
2019-06-01T11:41:03.917Z,34.50
2019-06-01T11:43:34.544Z,34.70
2019-06-01T11:46:04.129Z,33.20
2019-06-01T11:48:35.013Z,34.30
2019-06-01T11:51:04.828Z,35.10
2019-06-01T11:53:35.136Z,35.50
2019-06-01T11:56:05.046Z,36.90
2019-06-01T11:58:35.167Z,36.50
2019-06-01T12:01:04.929Z,36.20
2019-06-01T12:03:35.498Z,34.60
2019-06-01T12:06:05.991Z,34.10
2019-06-01T12:08:35.980Z,36.00
2019-06-01T12:11:14.601Z,38.80
2019-06-01T12:13:44.502Z,40.10
2019-06-01T12:16:14.077Z,41.60
2019-06-01T12:18:44.633Z,40.20
2019-06-01T12:21:14.317Z,38.80
2019-06-01T12:24:03.163Z,39.70
2019-06-01T12:26:32.700Z,41.30
2019-06-01T12:29:02.229Z,41.90
2019-06-01T12:31:31.778Z,42.00
2019-06-01T12:34:01.261Z,40.50
2019-06-01T12:36:30.766Z,39.50
2019-06-01T12:39:00.247Z,39.30
2019-06-01T12:41:29.721Z,38.80
2019-06-01T12:44:01.329Z,37.90
2019-06-01T12:46:30.812Z,38.00
2019-06-01T12:49:00.292Z,35.80
2019-06-01T12:51:29.753Z,35.40
2019-06-01T12:53:59.306Z,36.70
2019-06-01T12:56:29.202Z,37.30
2019-06-01T12:58:58.672Z,37.20
2019-06-01T13:01:28.186Z,37.20
2019-06-01T13:03:57.656Z,37.80
2019-06-01T13:06:27.181Z,38.70
2019-06-01T13:08:56.666Z,38.40
2019-06-01T13:11:26.192Z,38.90
2019-06-01T13:13:55.696Z,39.10
2019-06-01T13:16:25.404Z,36.70
2019-06-01T13:18:54.862Z,36.50
2019-06-01T13:21:27.535Z,36.80
2019-06-01T13:23:55.662Z,35.50
2019-06-01T13:26:25.497Z,34.50
2019-06-01T13:28:55.003Z,36.40
2019-06-01T13:31:24.500Z,38.10
2019-06-01T13:33:54.064Z,40.10
2019-06-01T13:36:23.599Z,41.40
2019-06-01T13:38:53.118Z,41.90
2019-06-01T13:41:22.821Z,41.80
2019-06-01T13:43:53.282Z,41.20
2019-06-01T13:46:23.130Z,40.00
2019-06-01T13:48:53.074Z,40.60
2019-06-01T13:51:23.803Z,42.10
2019-06-01T13:53:54.562Z,42.10
2019-06-01T13:56:24.163Z,40.20
2019-06-01T13:58:54.668Z,43.50
2019-06-01T14:01:24.299Z,42.40
2019-06-01T14:03:54.134Z,41.30
2019-06-01T14:06:24.909Z,42.20
2019-06-01T14:08:55.226Z,42.70
2019-06-01T14:11:24.796Z,44.70
2019-06-01T14:13:54.281Z,42.90
2019-06-01T14:16:43.072Z,42.90
2019-06-01T14:19:12.642Z,43.30
2019-06-01T14:21:42.110Z,41.40
2019-06-01T14:24:11.603Z,39.20
2019-06-01T14:26:41.142Z,38.00
2019-06-01T14:29:10.606Z,39.30
2019-06-01T14:31:40.098Z,37.80
2019-06-01T14:34:09.562Z,35.50
2019-06-01T14:36:39.040Z,36.50
2019-06-01T14:39:09.123Z,35.40
2019-06-01T14:41:38.588Z,33.30
2019-06-01T14:44:08.267Z,34.60
2019-06-01T14:46:52.958Z,36.70
2019-06-01T14:49:08.947Z,36.20
2019-06-01T14:51:57.897Z,35.40
2019-06-01T14:54:27.376Z,35.50
2019-06-01T14:56:57.913Z,36.00
2019-06-01T14:59:28.381Z,38.10
2019-06-01T15:01:58.434Z,36.30
2019-06-01T15:04:28.015Z,35.90
2019-06-01T15:06:58.574Z,36.20
2019-06-01T15:09:29.800Z,37.40
2019-06-01T15:11:59.296Z,39.20
2019-06-01T15:14:28.852Z,38.30
2019-06-01T15:16:58.285Z,37.60
2019-06-01T15:19:27.783Z,38.50
2019-06-01T15:21:58.198Z,37.60
2019-06-01T15:24:27.829Z,38.10
2019-06-01T15:26:57.350Z,38.60
2019-06-01T15:29:26.822Z,39.10
2019-06-01T15:31:56.336Z,38.30
2019-06-01T15:34:25.853Z,40.10
2019-06-01T15:36:55.608Z,39.80
2019-06-01T15:39:25.718Z,41.40
2019-06-01T15:41:55.333Z,40.50
2019-06-01T15:44:24.848Z,40.10
2019-06-01T15:46:55.562Z,40.20
2019-06-01T15:49:44.759Z,40.50
2019-06-01T15:52:14.220Z,42.30
2019-06-01T15:54:46.807Z,44.00
2019-06-01T15:57:16.377Z,44.80
2019-06-01T16:00:07.436Z,44.50
2019-06-01T16:02:36.921Z,44.50
2019-06-01T16:05:08.257Z,45.40
2019-06-01T16:07:37.799Z,45.60
2019-06-01T16:10:08.804Z,45.30
2019-06-01T16:12:57.696Z,46.30
2019-06-01T16:15:27.194Z,46.20
2019-06-01T16:17:57.866Z,47.10
2019-06-01T16:20:27.619Z,47.50
2019-06-01T16:22:58.075Z,46.70
2019-06-01T16:25:27.620Z,47.80
2019-06-01T16:27:57.135Z,46.80
2019-06-01T16:30:27.149Z,48.00
2019-06-01T16:32:58.519Z,48.40
2019-06-01T16:35:28.103Z,50.20
2019-06-01T16:37:58.825Z,50.50
2019-06-01T16:40:28.472Z,50.30
2019-06-01T16:42:57.991Z,51.70
2019-06-01T16:45:27.512Z,50.50
2019-06-01T16:47:57.402Z,51.00
2019-06-01T16:50:26.971Z,49.30
2019-06-01T16:52:57.911Z,51.20
2019-06-01T16:55:27.459Z,51.60
2019-06-01T16:57:57.046Z,53.10
2019-06-01T17:00:27.618Z,51.70
2019-06-01T17:02:58.390Z,51.10
2019-06-01T17:05:27.996Z,51.20
2019-06-01T17:07:58.656Z,52.80
2019-06-01T17:10:28.343Z,53.80
2019-06-01T17:13:00.232Z,51.90
2019-06-01T17:15:29.300Z,52.40
2019-06-01T17:18:03.008Z,54.20
2019-06-01T17:20:52.077Z,56.00
2019-06-01T17:23:26.752Z,55.00
2019-06-01T17:25:52.855Z,55.60
2019-06-01T17:28:22.393Z,54.70
2019-06-01T17:30:52.038Z,55.30
2019-06-01T17:33:21.540Z,56.70
2019-06-01T17:35:51.051Z,57.10
2019-06-01T17:38:20.541Z,57.30
2019-06-01T17:40:50.001Z,56.90
2019-06-01T17:43:19.532Z,57.40
2019-06-01T17:45:49.360Z,56.50
2019-06-01T17:48:26.568Z,56.40
2019-06-01T17:50:55.966Z,57.80
2019-06-01T17:53:25.539Z,57.60
2019-06-01T17:55:55.070Z,58.10
2019-06-01T17:58:24.789Z,57.10
2019-06-01T18:00:54.452Z,56.70
2019-06-01T18:03:23.962Z,56.90
2019-06-01T18:05:55.358Z,57.00
2019-06-01T18:08:24.858Z,56.20
2019-06-01T18:10:55.217Z,56.30
2019-06-01T18:13:26.441Z,56.50
2019-06-01T18:15:55.943Z,56.50
2019-06-01T18:18:25.671Z,57.00
2019-06-01T18:20:55.383Z,57.00
2019-06-01T18:23:25.050Z,57.80
2019-06-01T18:25:54.703Z,58.20
2019-06-01T18:28:24.257Z,58.10
2019-06-01T18:30:53.814Z,58.20
2019-06-01T18:33:23.522Z,59.60
2019-06-01T18:35:53.237Z,64.80
2019-06-01T18:38:22.720Z,65.00
2019-06-01T18:41:06.473Z,71.20
2019-06-01T18:43:23.775Z,75.90
2019-06-01T18:45:53.270Z,71.90
2019-06-01T18:48:23.329Z,73.60
2019-06-01T18:50:53.065Z,75.50
2019-06-01T18:53:22.656Z,75.10
2019-06-01T18:55:52.103Z,78.60
2019-06-01T18:58:21.769Z,81.90
2019-06-01T19:00:51.350Z,84.30
2019-06-01T19:03:20.810Z,94.10
2019-06-01T19:05:50.334Z,99.90
2019-06-01T19:08:19.803Z,99.90
2019-06-01T19:10:51.113Z,99.90
2019-06-01T19:13:20.847Z,99.90
2019-06-01T19:15:50.325Z,99.90
2019-06-01T19:18:19.798Z,99.90
2019-06-01T19:20:49.293Z,99.90
2019-06-01T19:23:21.835Z,99.90
2019-06-01T19:25:50.067Z,99.90
2019-06-01T19:28:19.686Z,99.90
2019-06-01T19:30:49.395Z,99.90
2019-06-01T19:33:19.615Z,99.90
2019-06-01T19:35:50.159Z,99.90
2019-06-01T19:38:21.279Z,99.90
2019-06-01T19:40:50.764Z,99.90
2019-06-01T19:43:20.275Z,99.90
2019-06-01T19:45:49.775Z,99.90
2019-06-01T19:48:19.451Z,99.90
2019-06-01T19:50:49.119Z,99.90
2019-06-01T19:53:18.894Z,99.90
2019-06-01T19:55:48.549Z,99.90
2019-06-01T19:58:19.110Z,99.90
2019-06-01T20:00:48.921Z,99.90
2019-06-01T20:03:21.886Z,99.90
2019-06-01T20:05:49.992Z,99.90
2019-06-01T20:08:19.465Z,99.90
2019-06-01T20:10:48.927Z,99.90
2019-06-01T20:13:19.938Z,99.90
2019-06-01T20:15:49.410Z,99.90
2019-06-01T20:18:19.148Z,99.90
2019-06-01T20:20:48.760Z,99.90
2019-06-01T20:23:19.535Z,99.90
2019-06-01T20:25:49.235Z,99.90
2019-06-01T20:28:19.696Z,99.90
2019-06-01T20:30:49.314Z,99.90
2019-06-01T20:33:20.291Z,99.90
2019-06-01T20:35:50.098Z,99.90
2019-06-01T20:38:20.593Z,99.90
2019-06-01T20:40:50.199Z,99.90
2019-06-01T20:43:20.812Z,99.90
2019-06-01T20:45:50.672Z,99.90
2019-06-01T20:48:20.896Z,99.90
2019-06-01T20:50:50.579Z,99.90
2019-06-01T20:53:21.073Z,99.90
2019-06-01T20:55:50.692Z,99.90
2019-06-01T20:58:22.908Z,99.90
2019-06-01T21:00:51.685Z,99.90
2019-06-01T21:03:21.914Z,99.90
2019-06-01T21:05:52.446Z,99.90
2019-06-01T21:08:22.440Z,99.90
2019-06-01T21:10:51.868Z,99.90
2019-06-01T21:13:22.306Z,99.90
2019-06-01T21:15:52.008Z,99.90
2019-06-01T21:18:22.585Z,99.90
2019-06-01T21:20:52.404Z,99.90
2019-06-01T21:23:23.034Z,99.90
2019-06-01T21:26:01.806Z,99.90
2019-06-01T21:28:31.328Z,99.90
2019-06-01T21:31:00.850Z,99.90
2019-06-01T21:33:36.349Z,99.90
2019-06-01T21:36:07.978Z,99.90
2019-06-01T21:38:38.353Z,99.90
2019-06-01T21:41:08.161Z,99.90
2019-06-01T21:43:37.617Z,99.90
2019-06-01T21:46:07.185Z,99.90
2019-06-01T21:48:36.899Z,99.90
2019-06-01T21:51:06.411Z,99.90
2019-06-01T21:53:36.083Z,99.90
2019-06-01T21:56:05.797Z,99.90
2019-06-01T21:58:35.297Z,99.90
2019-06-01T22:01:06.513Z,99.90
2019-06-01T22:03:36.380Z,99.90
2019-06-01T22:06:06.378Z,99.90
2019-06-01T22:08:35.837Z,99.90
2019-06-01T22:11:05.438Z,99.90
2019-06-01T22:13:34.925Z,99.90
2019-06-01T22:16:04.623Z,99.90
2019-06-01T22:18:34.093Z,99.90
2019-06-01T22:21:03.565Z,99.90
2019-06-01T22:23:33.031Z,99.90
2019-06-01T22:26:02.682Z,99.90
2019-06-01T22:28:32.147Z,99.90
2019-06-01T22:31:01.679Z,99.90
2019-06-01T22:33:31.187Z,99.90
2019-06-01T22:36:00.680Z,99.90
2019-06-01T22:38:30.169Z,99.90
2019-06-01T22:40:59.670Z,99.90
2019-06-01T22:43:43.452Z,99.90
2019-06-01T22:46:00.345Z,99.90
2019-06-01T22:48:29.889Z,99.90
2019-06-01T22:50:59.345Z,99.90
2019-06-01T22:53:29.508Z,99.90
2019-06-01T22:55:59.242Z,99.90
2019-06-01T22:58:29.634Z,99.90
2019-06-01T23:00:59.359Z,99.90
2019-06-01T23:03:30.112Z,99.90
2019-06-01T23:05:59.749Z,99.90
2019-06-01T23:08:29.516Z,99.90
2019-06-01T23:10:59.176Z,99.90
2019-06-01T23:13:28.666Z,99.90
2019-06-01T23:15:58.257Z,99.90
2019-06-01T23:18:28.029Z,99.90
2019-06-01T23:20:57.618Z,99.90
2019-06-01T23:23:28.090Z,99.90
2019-06-01T23:25:57.830Z,99.90
2019-06-01T23:28:28.586Z,99.90
2019-06-01T23:30:58.252Z,99.90
2019-06-01T23:33:28.880Z,99.90
2019-06-01T23:35:58.527Z,99.90
2019-06-01T23:38:40.078Z,99.90
2019-06-01T23:41:15.368Z,99.90
2019-06-01T23:43:44.812Z,99.90
2019-06-01T23:46:14.326Z,99.90
2019-06-01T23:49:03.144Z,99.90
2019-06-01T23:51:33.956Z,99.90
2019-06-01T23:54:03.619Z,99.90
2019-06-01T23:56:34.665Z,99.90
2019-06-01T23:59:24.067Z,99.90
